sensor_id;sensor_type;location;lat;lon;timestamp;pressure;altitude;pressure_sealevel;temperature;humidity
61484;BME280;47349;55.640;37.692;2022-08-21T00:01:55;100117.38;;;18.03;45.77
61484;BME280;47349;55.640;37.692;2022-08-21T00:04:24;100110.56;;;17.94;45.68
61484;BME280;47349;55.640;37.692;2022-08-21T00:07:06;100112.00;;;17.96;45.66
61484;BME280;47349;55.640;37.692;2022-08-21T00:09:33;100121.19;;;17.95;45.67
61484;BME280;47349;55.640;37.692;2022-08-21T00:12:04;100110.78;;;17.86;45.73
61484;BME280;47349;55.640;37.692;2022-08-21T00:14:35;100120.78;;;17.85;45.81
61484;BME280;47349;55.640;37.692;2022-08-21T00:17:07;100106.41;;;17.85;45.73
61484;BME280;47349;55.640;37.692;2022-08-21T00:19:35;100107.88;;;17.81;45.83
61484;BME280;47349;55.640;37.692;2022-08-21T00:22:04;100111.00;;;17.84;45.81
61484;BME280;47349;55.640;37.692;2022-08-21T00:24:33;100112.47;;;17.80;45.76
61484;BME280;47349;55.640;37.692;2022-08-21T00:27:14;100107.88;;;17.74;45.80
61484;BME280;47349;55.640;37.692;2022-08-21T00:29:42;100121.22;;;17.76;45.83
61484;BME280;47349;55.640;37.692;2022-08-21T00:32:29;100110.34;;;17.69;46.03
61484;BME280;47349;55.640;37.692;2022-08-21T00:34:57;100113.94;;;17.56;45.95
61484;BME280;47349;55.640;37.692;2022-08-21T00:38:07;100104.97;;;17.56;46.33
61484;BME280;47349;55.640;37.692;2022-08-21T00:41:25;100102.06;;;17.51;46.30
61484;BME280;47349;55.640;37.692;2022-08-21T00:44:07;100107.06;;;17.54;46.47
61484;BME280;47349;55.640;37.692;2022-08-21T00:46:48;100113.31;;;17.54;46.39
61484;BME280;47349;55.640;37.692;2022-08-21T00:49:17;100107.06;;;17.47;46.42
61484;BME280;47349;55.640;37.692;2022-08-21T00:52:00;100101.63;;;17.40;46.39
61484;BME280;47349;55.640;37.692;2022-08-21T00:54:31;100105.84;;;17.36;46.59
61484;BME280;47349;55.640;37.692;2022-08-21T00:57:20;100107.28;;;17.32;46.67
61484;BME280;47349;55.640;37.692;2022-08-21T01:00:07;100099.38;;;17.24;46.74
61484;BME280;47349;55.640;37.692;2022-08-21T01:02:50;100120.81;;;17.26;46.84
61484;BME280;47349;55.640;37.692;2022-08-21T01:05:53;100111.44;;;17.15;46.88
61484;BME280;47349;55.640;37.692;2022-08-21T01:08:54;100108.75;;;17.08;47.33
61484;BME280;47349;55.640;37.692;2022-08-21T01:11:24;100118.13;;;17.06;47.45
61484;BME280;47349;55.640;37.692;2022-08-21T01:13:53;100106.47;;;16.99;47.54
61484;BME280;47349;55.640;37.692;2022-08-21T01:16:22;100109.78;;;17.01;47.58
61484;BME280;47349;55.640;37.692;2022-08-21T01:18:50;100104.78;;;16.98;47.83
61484;BME280;47349;55.640;37.692;2022-08-21T01:21:22;100100.19;;;16.91;47.66
61484;BME280;47349;55.640;37.692;2022-08-21T01:23:56;100102.50;;;16.94;48.03
61484;BME280;47349;55.640;37.692;2022-08-21T01:26:30;100099.16;;;16.92;47.92
61484;BME280;47349;55.640;37.692;2022-08-21T01:32:06;100096.66;;;16.84;48.46
61484;BME280;47349;55.640;37.692;2022-08-21T01:36:15;100085.81;;;16.84;48.69
61484;BME280;47349;55.640;37.692;2022-08-21T01:38:44;100096.22;;;16.81;48.36
61484;BME280;47349;55.640;37.692;2022-08-21T01:41:16;100102.91;;;16.78;48.34
61484;BME280;47349;55.640;37.692;2022-08-21T01:43:44;100086.44;;;16.73;48.48
61484;BME280;47349;55.640;37.692;2022-08-21T01:46:16;100091.19;;;16.71;48.64
61484;BME280;47349;55.640;37.692;2022-08-21T01:48:53;100100.16;;;16.72;48.80
61484;BME280;47349;55.640;37.692;2022-08-21T01:51:24;100103.66;;;16.65;49.03
61484;BME280;47349;55.640;37.692;2022-08-21T01:54:05;100092.84;;;16.59;49.16
61484;BME280;47349;55.640;37.692;2022-08-21T01:56:39;100109.47;;;16.62;49.30
61484;BME280;47349;55.640;37.692;2022-08-21T01:59:23;100100.31;;;16.57;49.33
61484;BME280;47349;55.640;37.692;2022-08-21T02:01:51;100089.25;;;16.52;49.44
61484;BME280;47349;55.640;37.692;2022-08-21T02:04:23;100103.22;;;16.55;49.43
61484;BME280;47349;55.640;37.692;2022-08-21T02:07:03;100104.44;;;16.53;49.81
61484;BME280;47349;55.640;37.692;2022-08-21T02:09:37;100104.44;;;16.53;49.54
61484;BME280;47349;55.640;37.692;2022-08-21T02:12:10;100112.56;;;16.53;49.71
61484;BME280;47349;55.640;37.692;2022-08-21T02:14:38;100104.88;;;16.50;49.86
61484;BME280;47349;55.640;37.692;2022-08-21T02:18:05;100105.28;;;16.53;49.82
61484;BME280;47349;55.640;37.692;2022-08-21T02:20:36;100102.41;;;16.55;49.82
61484;BME280;47349;55.640;37.692;2022-08-21T02:23:12;100099.88;;;16.47;49.66
61484;BME280;47349;55.640;37.692;2022-08-21T02:25:41;100105.72;;;16.57;49.90
61484;BME280;47349;55.640;37.692;2022-08-21T02:28:17;100101.75;;;16.53;49.68
61484;BME280;47349;55.640;37.692;2022-08-21T02:30:46;100115.28;;;16.53;49.97
61484;BME280;47349;55.640;37.692;2022-08-21T02:33:14;100115.06;;;16.48;49.98
61484;BME280;47349;55.640;37.692;2022-08-21T02:35:44;100118.41;;;16.50;50.08
61484;BME280;47349;55.640;37.692;2022-08-21T02:38:30;100101.97;;;16.44;50.27
61484;BME280;47349;55.640;37.692;2022-08-21T02:41:04;100119.84;;;16.45;50.25
61484;BME280;47349;55.640;37.692;2022-08-21T02:44:12;100119.84;;;16.45;50.43
61484;BME280;47349;55.640;37.692;2022-08-21T02:47:04;100116.09;;;16.47;50.48
61484;BME280;47349;55.640;37.692;2022-08-21T02:49:34;100113.59;;;16.45;50.44
61484;BME280;47349;55.640;37.692;2022-08-21T02:52:03;100119.41;;;16.35;50.64
61484;BME280;47349;55.640;37.692;2022-08-21T02:54:33;100120.84;;;16.31;50.62
61484;BME280;47349;55.640;37.692;2022-08-21T02:57:03;100122.91;;;16.29;50.80
61484;BME280;47349;55.640;37.692;2022-08-21T02:59:31;100115.66;;;16.36;50.83
61484;BME280;47349;55.640;37.692;2022-08-21T03:01:59;100113.78;;;16.43;50.54
61484;BME280;47349;55.640;37.692;2022-08-21T03:04:28;100120.25;;;16.42;50.54
61484;BME280;47349;55.640;37.692;2022-08-21T03:07:10;100124.81;;;16.42;50.74
61484;BME280;47349;55.640;37.692;2022-08-21T03:10:54;100131.72;;;16.44;50.75
61484;BME280;47349;55.640;37.692;2022-08-21T03:14:50;100129.41;;;16.41;50.94
61484;BME280;47349;55.640;37.692;2022-08-21T03:17:21;100117.75;;;16.41;50.79
61484;BME280;47349;55.640;37.692;2022-08-21T03:20:52;100123.41;;;16.53;50.99
61484;BME280;47349;55.640;37.692;2022-08-21T03:23:35;100136.53;;;16.56;50.60
61484;BME280;47349;55.640;37.692;2022-08-21T03:26:04;100131.56;;;16.59;50.50
61484;BME280;47349;55.640;37.692;2022-08-21T03:28:35;100113.44;;;16.60;50.44
61484;BME280;47349;55.640;37.692;2022-08-21T03:31:03;100119.47;;;16.62;49.97
61484;BME280;47349;55.640;37.692;2022-08-21T03:33:36;100136.81;;;16.74;50.10
61484;BME280;47349;55.640;37.692;2022-08-21T03:36:07;100132.47;;;16.73;50.17
61484;BME280;47349;55.640;37.692;2022-08-21T03:38:39;100134.72;;;16.76;50.02
61484;BME280;47349;55.640;37.692;2022-08-21T03:41:10;100139.09;;;16.77;49.65
61484;BME280;47349;55.640;37.692;2022-08-21T03:45:18;100138.31;;;16.83;49.50
61484;BME280;47349;55.640;37.692;2022-08-21T03:48:44;100135.38;;;16.91;49.55
61484;BME280;47349;55.640;37.692;2022-08-21T03:51:31;100137.91;;;17.00;49.13
61484;BME280;47349;55.640;37.692;2022-08-21T03:54:14;100141.22;;;16.88;49.55
61484;BME280;47349;55.640;37.692;2022-08-21T03:56:55;100143.50;;;16.91;49.44
61484;BME280;47349;55.640;37.692;2022-08-21T03:59:23;100132.50;;;16.93;49.33
61484;BME280;47349;55.640;37.692;2022-08-21T04:02:02;100131.66;;;16.92;49.52
61484;BME280;47349;55.640;37.692;2022-08-21T04:04:36;100127.91;;;16.93;49.50
61484;BME280;47349;55.640;37.692;2022-08-21T04:07:17;100119.34;;;16.96;49.09
61484;BME280;47349;55.640;37.692;2022-08-21T04:09:48;100129.78;;;17.06;49.32
61484;BME280;47349;55.640;37.692;2022-08-21T04:12:16;100120.81;;;17.06;49.34
61484;BME280;47349;55.640;37.692;2022-08-21T04:14:47;100116.44;;;17.05;49.27
61484;BME280;47349;55.640;37.692;2022-08-21T04:17:29;100127.31;;;17.18;49.18
61484;BME280;47349;55.640;37.692;2022-08-21T04:19:58;100115.84;;;17.23;49.21
61484;BME280;47349;55.640;37.692;2022-08-21T04:22:30;100127.09;;;17.33;49.07
61484;BME280;47349;55.640;37.692;2022-08-21T04:24:58;100135.84;;;17.35;49.00
61484;BME280;47349;55.640;37.692;2022-08-21T04:27:27;100140.00;;;17.24;49.19
61484;BME280;47349;55.640;37.692;2022-08-21T04:29:57;100138.34;;;17.23;49.10
61484;BME280;47349;55.640;37.692;2022-08-21T04:32:41;100142.50;;;17.32;49.14
61484;BME280;47349;55.640;37.692;2022-08-21T04:35:27;100138.56;;;17.41;49.08
61484;BME280;47349;55.640;37.692;2022-08-21T04:38:04;100135.41;;;17.38;49.14
61484;BME280;47349;55.640;37.692;2022-08-21T04:40:47;100124.16;;;17.34;49.11
61484;BME280;47349;55.640;37.692;2022-08-21T04:43:16;100135.84;;;17.41;49.08
61484;BME280;47349;55.640;37.692;2022-08-21T04:45:49;100136.66;;;17.48;49.08
61484;BME280;47349;55.640;37.692;2022-08-21T04:48:20;100143.34;;;17.53;49.08
61484;BME280;47349;55.640;37.692;2022-08-21T04:54:21;100139.56;;;17.67;48.86
61484;BME280;47349;55.640;37.692;2022-08-21T04:56:40;100145.81;;;17.74;48.49
61484;BME280;47349;55.640;37.692;2022-08-21T04:59:23;100144.16;;;17.73;48.28
61484;BME280;47349;55.640;37.692;2022-08-21T05:02:05;100140.22;;;17.76;48.56
61484;BME280;47349;55.640;37.692;2022-08-21T05:04:45;100147.72;;;17.80;48.17
61484;BME280;47349;55.640;37.692;2022-08-21T05:07:22;100145.81;;;17.94;48.15
61484;BME280;47349;55.640;37.692;2022-08-21T05:10:49;100139.94;;;18.04;47.53
61484;BME280;47349;55.640;37.692;2022-08-21T05:21:20;100135.47;;;18.22;46.68
61484;BME280;47349;55.640;37.692;2022-08-21T05:23:48;100126.50;;;18.22;46.95
61484;BME280;47349;55.640;37.692;2022-08-21T05:26:17;100138.19;;;18.29;46.87
61484;BME280;47349;55.640;37.692;2022-08-21T05:28:46;100131.66;;;18.37;46.82
61484;BME280;47349;55.640;37.692;2022-08-21T05:31:14;100123.50;;;18.43;46.29
61484;BME280;47349;55.640;37.692;2022-08-21T05:33:42;100133.50;;;18.49;46.15
61484;BME280;47349;55.640;37.692;2022-08-21T05:36:11;100124.91;;;18.53;46.05
61484;BME280;47349;55.640;37.692;2022-08-21T05:38:53;100129.22;;;18.67;46.32
61484;BME280;47349;55.640;37.692;2022-08-21T05:41:37;100131.69;;;18.82;45.86
61484;BME280;47349;55.640;37.692;2022-08-21T05:44:06;100128.72;;;18.83;45.37
61484;BME280;47349;55.640;37.692;2022-08-21T05:46:38;100129.97;;;18.87;45.66
61484;BME280;47349;55.640;37.692;2022-08-21T05:49:05;100137.94;;;18.82;45.59
61484;BME280;47349;55.640;37.692;2022-08-21T05:51:33;100131.19;;;18.91;45.28
61484;BME280;47349;55.640;37.692;2022-08-21T05:54:02;100135.34;;;18.94;45.45
61484;BME280;47349;55.640;37.692;2022-08-21T05:56:32;100132.44;;;18.95;45.34
61484;BME280;47349;55.640;37.692;2022-08-21T05:59:04;100122.28;;;19.09;44.86
61484;BME280;47349;55.640;37.692;2022-08-21T06:01:34;100134.69;;;19.23;44.91
61484;BME280;47349;55.640;37.692;2022-08-21T06:04:03;100128.19;;;19.31;44.82
61484;BME280;47349;55.640;37.692;2022-08-21T06:06:40;100129.56;;;19.40;44.20
61484;BME280;47349;55.640;37.692;2022-08-21T06:09:08;100127.59;;;19.47;44.48
61484;BME280;47349;55.640;37.692;2022-08-21T06:11:50;100115.19;;;19.58;44.29
61484;BME280;47349;55.640;37.692;2022-08-21T06:14:18;100118.00;;;19.70;43.66
61484;BME280;47349;55.640;37.692;2022-08-21T06:16:51;100117.88;;;19.83;43.45
61484;BME280;47349;55.640;37.692;2022-08-21T06:19:24;100117.13;;;19.94;43.11
61484;BME280;47349;55.640;37.692;2022-08-21T06:21:56;100111.44;;;19.96;42.79
61484;BME280;47349;55.640;37.692;2022-08-21T06:24:25;100111.38;;;20.02;42.25
61484;BME280;47349;55.640;37.692;2022-08-21T06:27:09;100116.34;;;20.06;41.70
61484;BME280;47349;55.640;37.692;2022-08-21T06:29:36;100119.06;;;20.24;41.54
61484;BME280;47349;55.640;37.692;2022-08-21T06:32:11;100110.59;;;20.32;41.54
61484;BME280;47349;55.640;37.692;2022-08-21T06:34:52;100106.19;;;20.49;41.42
61484;BME280;47349;55.640;37.692;2022-08-21T06:37:30;100108.22;;;20.54;40.09
61484;BME280;47349;55.640;37.692;2022-08-21T06:39:58;100086.44;;;20.54;39.64
61484;BME280;47349;55.640;37.692;2022-08-21T06:42:29;100096.50;;;20.53;39.69
61484;BME280;47349;55.640;37.692;2022-08-21T06:44:57;100086.81;;;20.58;39.50
61484;BME280;47349;55.640;37.692;2022-08-21T06:47:39;100102.22;;;20.64;39.18
61484;BME280;47349;55.640;37.692;2022-08-21T06:50:10;100114.41;;;20.91;39.33
61484;BME280;47349;55.640;37.692;2022-08-21T06:52:42;100090.69;;;20.80;39.54
61484;BME280;47349;55.640;37.692;2022-08-21T06:55:12;100094.50;;;20.91;39.57
61484;BME280;47349;55.640;37.692;2022-08-21T06:57:49;100105.69;;;21.13;39.42
61484;BME280;47349;55.640;37.692;2022-08-21T07:00:21;100090.75;;;21.03;38.89
61484;BME280;47349;55.640;37.692;2022-08-21T07:03:03;100095.25;;;21.21;39.10
61484;BME280;47349;55.640;37.692;2022-08-21T07:05:33;100105.16;;;21.46;38.57
61484;BME280;47349;55.640;37.692;2022-08-21T07:08:03;100101.97;;;21.49;38.92
61484;BME280;47349;55.640;37.692;2022-08-21T07:10:31;100063.66;;;21.32;38.65
61484;BME280;47349;55.640;37.692;2022-08-21T07:13:13;100079.09;;;21.38;38.10
61484;BME280;47349;55.640;37.692;2022-08-21T07:15:44;100062.34;;;21.35;38.13
61484;BME280;47349;55.640;37.692;2022-08-21T07:18:31;100072.78;;;21.49;37.71
61484;BME280;47349;55.640;37.692;2022-08-21T07:21:03;100062.22;;;21.41;37.55
61484;BME280;47349;55.640;37.692;2022-08-21T07:23:51;100071.47;;;21.64;37.89
61484;BME280;47349;55.640;37.692;2022-08-21T07:26:22;100051.09;;;21.66;37.55
61484;BME280;47349;55.640;37.692;2022-08-21T08:10:38;100054.97;;;22.96;34.83
61484;BME280;47349;55.640;37.692;2022-08-21T08:13:24;100067.09;;;23.17;34.73
61484;BME280;47349;55.640;37.692;2022-08-21T08:15:53;100029.97;;;23.04;34.71
61484;BME280;47349;55.640;37.692;2022-08-21T08:18:37;100028.16;;;22.93;32.46
61484;BME280;47349;55.640;37.692;2022-08-21T08:21:22;100029.81;;;22.94;32.29
61484;BME280;47349;55.640;37.692;2022-08-21T08:24:05;100024.69;;;22.98;31.89
61484;BME280;47349;55.640;37.692;2022-08-21T11:57:30;99951.66;;;24.89;29.83
61484;BME280;47349;55.640;37.692;2022-08-21T12:06:40;99943.81;;;24.71;29.64
61484;BME280;47349;55.640;37.692;2022-08-21T12:10:35;99950.44;;;24.75;30.17
61484;BME280;47349;55.640;37.692;2022-08-21T12:14:45;99966.78;;;24.97;29.73
61484;BME280;47349;55.640;37.692;2022-08-21T12:18:05;99944.25;;;24.90;29.96
61484;BME280;47349;55.640;37.692;2022-08-21T12:22:19;99950.06;;;24.98;29.69
61484;BME280;47349;55.640;37.692;2022-08-21T12:26:17;99941.69;;;25.10;29.50
61484;BME280;47349;55.640;37.692;2022-08-21T12:56:59;99928.50;;;25.64;29.34
61484;BME280;47349;55.640;37.692;2022-08-21T12:59:53;99931.53;;;25.68;29.34
61484;BME280;47349;55.640;37.692;2022-08-21T13:03:40;99939.75;;;25.63;29.30
61484;BME280;47349;55.640;37.692;2022-08-21T14:39:42;99907.53;;;25.43;26.95
61484;BME280;47349;55.640;37.692;2022-08-21T14:42:35;99886.94;;;25.35;27.31
61484;BME280;47349;55.640;37.692;2022-08-21T14:46:08;99915.81;;;25.48;26.96
61484;BME280;47349;55.640;37.692;2022-08-21T14:48:57;99899.28;;;25.38;27.33
61484;BME280;47349;55.640;37.692;2022-08-21T14:51:39;99876.75;;;25.26;27.53
61484;BME280;47349;55.640;37.692;2022-08-21T14:54:43;99891.56;;;25.25;27.61
61484;BME280;47349;55.640;37.692;2022-08-21T14:58:00;99919.59;;;25.37;27.83
61484;BME280;47349;55.640;37.692;2022-08-21T15:04:57;99913.50;;;25.20;28.20
61484;BME280;47349;55.640;37.692;2022-08-21T15:09:14;99890.81;;;24.92;28.10
61484;BME280;47349;55.640;37.692;2022-08-21T15:12:27;99886.91;;;24.83;28.41
61484;BME280;47349;55.640;37.692;2022-08-21T15:15:52;99892.69;;;24.86;28.44
61484;BME280;47349;55.640;37.692;2022-08-21T15:20:17;99909.22;;;24.97;28.19
61484;BME280;47349;55.640;37.692;2022-08-21T20:19:34;99904.91;;;21.70;36.27
61484;BME280;47349;55.640;37.692;2022-08-21T20:22:05;99878.44;;;21.54;36.49
61484;BME280;47349;55.640;37.692;2022-08-21T20:24:47;99878.06;;;21.50;36.86
61484;BME280;47349;55.640;37.692;2022-08-21T20:27:25;99876.31;;;21.44;36.63
61484;BME280;47349;55.640;37.692;2022-08-21T20:29:54;99884.50;;;21.44;36.87
61484;BME280;47349;55.640;37.692;2022-08-21T20:32:25;99891.59;;;21.45;36.85
61484;BME280;47349;55.640;37.692;2022-08-21T20:34:53;99887.13;;;21.39;36.98
61484;BME280;47349;55.640;37.692;2022-08-21T20:37:30;99905.84;;;21.47;37.22
61484;BME280;47349;55.640;37.692;2022-08-21T20:40:21;99883.09;;;21.30;37.10
61484;BME280;47349;55.640;37.692;2022-08-21T20:43:12;99884.19;;;21.17;37.61
61484;BME280;47349;55.640;37.692;2022-08-21T20:46:06;99903.25;;;21.29;37.42
61484;BME280;47349;55.640;37.692;2022-08-21T20:48:49;99908.09;;;21.27;37.50
61484;BME280;47349;55.640;37.692;2022-08-21T20:51:39;99897.47;;;21.14;37.70
61484;BME280;47349;55.640;37.692;2022-08-21T20:57:16;99885.41;;;21.10;37.79
61484;BME280;47349;55.640;37.692;2022-08-21T20:59:59;99922.59;;;21.27;37.91
61484;BME280;47349;55.640;37.692;2022-08-21T21:02:57;99924.47;;;21.27;38.01
61484;BME280;47349;55.640;37.692;2022-08-21T21:05:50;99896.41;;;21.03;38.21
61484;BME280;47349;55.640;37.692;2022-08-21T21:08:47;99907.44;;;21.08;38.20
61484;BME280;47349;55.640;37.692;2022-08-21T21:11:36;99893.13;;;20.89;38.49
61484;BME280;47349;55.640;37.692;2022-08-21T21:14:22;99888.16;;;20.86;38.32
61484;BME280;47349;55.640;37.692;2022-08-21T21:16:59;99906.25;;;20.92;38.42
61484;BME280;47349;55.640;37.692;2022-08-21T21:19:50;99875.84;;;20.72;38.53
61484;BME280;47349;55.640;37.692;2022-08-21T21:22:25;99884.47;;;20.69;38.91
61484;BME280;47349;55.640;37.692;2022-08-21T21:48:14;99872.03;;;20.49;39.80
61484;BME280;47349;55.640;37.692;2022-08-21T21:51:19;99885.66;;;20.49;39.86
61484;BME280;47349;55.640;37.692;2022-08-21T21:54:11;99894.53;;;20.57;39.86
61484;BME280;47349;55.640;37.692;2022-08-21T21:57:25;99916.09;;;20.70;40.08
61484;BME280;47349;55.640;37.692;2022-08-21T22:00:16;99921.56;;;20.70;39.92
61484;BME280;47349;55.640;37.692;2022-08-21T22:03:14;99893.34;;;20.52;40.37
61484;BME280;47349;55.640;37.692;2022-08-21T22:09:03;99905.91;;;20.53;40.10
61484;BME280;47349;55.640;37.692;2022-08-21T22:12:06;99881.94;;;20.32;40.39
61484;BME280;47349;55.640;37.692;2022-08-21T22:14:51;99884.06;;;20.30;40.47
61484;BME280;47349;55.640;37.692;2022-08-21T22:17:47;99908.50;;;20.48;40.51
61484;BME280;47349;55.640;37.692;2022-08-21T22:20:29;99884.41;;;20.34;40.64
61484;BME280;47349;55.640;37.692;2022-08-21T22:23:18;99894.47;;;20.33;40.82
61484;BME280;47349;55.640;37.692;2022-08-21T22:25:51;99887.38;;;20.32;40.60
61484;BME280;47349;55.640;37.692;2022-08-21T22:28:40;99892.00;;;20.32;40.29
61484;BME280;47349;55.640;37.692;2022-08-21T22:31:20;99905.63;;;20.43;40.62
61484;BME280;47349;55.640;37.692;2022-08-21T22:34:13;99903.97;;;20.42;40.78
61484;BME280;47349;55.640;37.692;2022-08-21T22:37:00;99878.97;;;20.22;40.95
61484;BME280;47349;55.640;37.692;2022-08-21T22:39:33;99875.06;;;20.18;41.00
61484;BME280;47349;55.640;37.692;2022-08-21T22:42:19;99882.16;;;20.19;41.00
61484;BME280;47349;55.640;37.692;2022-08-21T22:45:05;99907.28;;;20.33;40.98
61484;BME280;47349;55.640;37.692;2022-08-21T22:47:44;99891.84;;;20.15;41.03
61484;BME280;47349;55.640;37.692;2022-08-21T22:53:08;99891.56;;;20.05;41.20
61484;BME280;47349;55.640;37.692;2022-08-21T22:55:43;99900.94;;;20.09;41.50
61484;BME280;47349;55.640;37.692;2022-08-21T23:03:35;99893.72;;;20.02;41.29
61484;BME280;47349;55.640;37.692;2022-08-21T23:06:29;99888.84;;;20.05;41.22
61484;BME280;47349;55.640;37.692;2022-08-21T23:09:00;99888.72;;;19.99;40.95
61484;BME280;47349;55.640;37.692;2022-08-21T23:11:40;99894.31;;;20.05;41.01
61484;BME280;47349;55.640;37.692;2022-08-21T23:14:23;99891.22;;;20.01;41.17
61484;BME280;47349;55.640;37.692;2022-08-21T23:17:07;99911.03;;;20.20;41.11
61484;BME280;47349;55.640;37.692;2022-08-21T23:19:58;99901.50;;;19.99;40.96
61484;BME280;47349;55.640;37.692;2022-08-21T23:22:43;99888.00;;;19.92;41.48
61484;BME280;47349;55.640;37.692;2022-08-21T23:35:15;99921.25;;;20.06;41.62
61484;BME280;47349;55.640;37.692;2022-08-21T23:37:59;99926.50;;;20.08;41.79
61484;BME280;47349;55.640;37.692;2022-08-21T23:40:46;99909.53;;;19.94;41.54
61484;BME280;47349;55.640;37.692;2022-08-21T23:43:31;99925.44;;;20.09;41.53
61484;BME280;47349;55.640;37.692;2022-08-21T23:46:26;99903.34;;;19.87;41.92
61484;BME280;47349;55.640;37.692;2022-08-21T23:52:14;99910.91;;;19.85;41.99
